sensor_id;sensor_type;location;lat;lon;timestamp;P1;durP1;ratioP1;P2;durP2;ratioP2
22628;SDS011;11481;53.694;9.910;2022-08-20T00:01:34;17.42;;;7.63;;
22628;SDS011;11481;53.694;9.910;2022-08-20T00:04:01;13.85;;;7.30;;
22628;SDS011;11481;53.694;9.910;2022-08-20T00:06:27;18.17;;;8.55;;
22628;SDS011;11481;53.694;9.910;2022-08-20T00:08:54;16.88;;;8.13;;
22628;SDS011;11481;53.694;9.910;2022-08-20T00:11:22;18.00;;;7.78;;
22628;SDS011;11481;53.694;9.910;2022-08-20T00:13:55;18.02;;;7.85;;
22628;SDS011;11481;53.694;9.910;2022-08-20T00:16:24;15.02;;;7.72;;
22628;SDS011;11481;53.694;9.910;2022-08-20T00:18:53;14.82;;;7.78;;
22628;SDS011;11481;53.694;9.910;2022-08-20T00:21:20;17.80;;;8.98;;
22628;SDS011;11481;53.694;9.910;2022-08-20T00:23:48;15.88;;;7.65;;
22628;SDS011;11481;53.694;9.910;2022-08-20T00:26:17;14.75;;;7.63;;
22628;SDS011;11481;53.694;9.910;2022-08-20T00:28:45;14.98;;;7.53;;
22628;SDS011;11481;53.694;9.910;2022-08-20T00:31:14;15.93;;;7.10;;
22628;SDS011;11481;53.694;9.910;2022-08-20T00:33:44;17.15;;;8.07;;
22628;SDS011;11481;53.694;9.910;2022-08-20T00:36:12;19.13;;;8.35;;
22628;SDS011;11481;53.694;9.910;2022-08-20T00:38:43;14.10;;;6.88;;
22628;SDS011;11481;53.694;9.910;2022-08-20T00:41:13;14.73;;;7.00;;
22628;SDS011;11481;53.694;9.910;2022-08-20T00:43:47;16.75;;;7.55;;
22628;SDS011;11481;53.694;9.910;2022-08-20T00:46:30;14.35;;;7.22;;
22628;SDS011;11481;53.694;9.910;2022-08-20T00:48:57;13.43;;;6.82;;
22628;SDS011;11481;53.694;9.910;2022-08-20T00:56:41;12.00;;;6.40;;
22628;SDS011;11481;53.694;9.910;2022-08-20T00:59:11;12.68;;;5.88;;
22628;SDS011;11481;53.694;9.910;2022-08-20T01:01:43;14.18;;;5.93;;
22628;SDS011;11481;53.694;9.910;2022-08-20T01:04:21;13.00;;;5.72;;
22628;SDS011;11481;53.694;9.910;2022-08-20T01:06:59;14.60;;;5.97;;
22628;SDS011;11481;53.694;9.910;2022-08-20T01:09:26;11.13;;;5.20;;
22628;SDS011;11481;53.694;9.910;2022-08-20T01:12:13;12.55;;;6.50;;
22628;SDS011;11481;53.694;9.910;2022-08-20T01:14:41;13.55;;;6.40;;
22628;SDS011;11481;53.694;9.910;2022-08-20T01:17:10;12.13;;;6.20;;
22628;SDS011;11481;53.694;9.910;2022-08-20T01:20:26;13.82;;;6.47;;
22628;SDS011;11481;53.694;9.910;2022-08-20T01:25:45;16.13;;;7.00;;
22628;SDS011;11481;53.694;9.910;2022-08-20T01:28:13;15.25;;;5.70;;
22628;SDS011;11481;53.694;9.910;2022-08-20T01:30:44;13.45;;;7.43;;
22628;SDS011;11481;53.694;9.910;2022-08-20T01:33:11;11.98;;;5.85;;
22628;SDS011;11481;53.694;9.910;2022-08-20T01:35:39;10.95;;;4.97;;
22628;SDS011;11481;53.694;9.910;2022-08-20T01:38:08;11.75;;;5.93;;
22628;SDS011;11481;53.694;9.910;2022-08-20T01:40:40;12.75;;;6.28;;
22628;SDS011;11481;53.694;9.910;2022-08-20T01:43:09;13.70;;;6.60;;
22628;SDS011;11481;53.694;9.910;2022-08-20T01:45:39;11.85;;;6.15;;
22628;SDS011;11481;53.694;9.910;2022-08-20T01:48:05;13.85;;;6.18;;
22628;SDS011;11481;53.694;9.910;2022-08-20T01:50:34;15.20;;;6.35;;
22628;SDS011;11481;53.694;9.910;2022-08-20T01:55:47;12.45;;;6.53;;
22628;SDS011;11481;53.694;9.910;2022-08-20T01:58:14;10.05;;;5.18;;
22628;SDS011;11481;53.694;9.910;2022-08-20T02:00:41;14.38;;;6.35;;
22628;SDS011;11481;53.694;9.910;2022-08-20T02:03:08;10.98;;;5.78;;
22628;SDS011;11481;53.694;9.910;2022-08-20T02:05:35;9.65;;;5.10;;
22628;SDS011;11481;53.694;9.910;2022-08-20T02:08:01;14.30;;;6.03;;
22628;SDS011;11481;53.694;9.910;2022-08-20T02:10:29;10.15;;;5.72;;
22628;SDS011;11481;53.694;9.910;2022-08-20T02:12:57;11.52;;;6.03;;
22628;SDS011;11481;53.694;9.910;2022-08-20T02:15:25;10.82;;;4.93;;
22628;SDS011;11481;53.694;9.910;2022-08-20T02:18:03;10.18;;;5.32;;
22628;SDS011;11481;53.694;9.910;2022-08-20T02:20:37;13.68;;;5.80;;
22628;SDS011;11481;53.694;9.910;2022-08-20T02:23:06;11.57;;;5.05;;
22628;SDS011;11481;53.694;9.910;2022-08-20T02:25:34;11.40;;;5.20;;
22628;SDS011;11481;53.694;9.910;2022-08-20T02:28:04;10.45;;;4.78;;
22628;SDS011;11481;53.694;9.910;2022-08-20T02:30:34;9.95;;;4.63;;
22628;SDS011;11481;53.694;9.910;2022-08-20T02:33:04;12.75;;;4.70;;
22628;SDS011;11481;53.694;9.910;2022-08-20T02:35:34;11.00;;;4.75;;
22628;SDS011;11481;53.694;9.910;2022-08-20T02:38:02;8.25;;;4.22;;
22628;SDS011;11481;53.694;9.910;2022-08-20T02:40:29;15.68;;;4.80;;
22628;SDS011;11481;53.694;9.910;2022-08-20T02:42:57;12.13;;;5.72;;
22628;SDS011;11481;53.694;9.910;2022-08-20T02:45:25;10.90;;;4.90;;
22628;SDS011;11481;53.694;9.910;2022-08-20T02:47:52;9.65;;;4.63;;
22628;SDS011;11481;53.694;9.910;2022-08-20T02:50:22;7.88;;;3.92;;
22628;SDS011;11481;53.694;9.910;2022-08-20T02:52:51;10.07;;;4.13;;
22628;SDS011;11481;53.694;9.910;2022-08-20T02:55:18;8.35;;;4.03;;
22628;SDS011;11481;53.694;9.910;2022-08-20T02:57:56;9.63;;;4.78;;
22628;SDS011;11481;53.694;9.910;2022-08-20T03:00:25;12.27;;;4.55;;
22628;SDS011;11481;53.694;9.910;2022-08-20T03:03:04;11.05;;;4.68;;
22628;SDS011;11481;53.694;9.910;2022-08-20T03:05:36;11.20;;;4.95;;
22628;SDS011;11481;53.694;9.910;2022-08-20T03:08:06;16.10;;;5.85;;
22628;SDS011;11481;53.694;9.910;2022-08-20T03:10:35;9.77;;;4.65;;
22628;SDS011;11481;53.694;9.910;2022-08-20T03:13:04;12.15;;;4.82;;
22628;SDS011;11481;53.694;9.910;2022-08-20T03:15:32;8.52;;;4.13;;
22628;SDS011;11481;53.694;9.910;2022-08-20T03:17:59;7.35;;;3.65;;
22628;SDS011;11481;53.694;9.910;2022-08-20T03:20:26;7.72;;;4.15;;
22628;SDS011;11481;53.694;9.910;2022-08-20T03:22:54;11.98;;;5.38;;
22628;SDS011;11481;53.694;9.910;2022-08-20T03:25:21;12.40;;;5.05;;
22628;SDS011;11481;53.694;9.910;2022-08-20T03:27:48;8.65;;;4.32;;
22628;SDS011;11481;53.694;9.910;2022-08-20T03:30:20;8.43;;;4.47;;
22628;SDS011;11481;53.694;9.910;2022-08-20T03:32:47;12.05;;;5.05;;
22628;SDS011;11481;53.694;9.910;2022-08-20T03:35:15;13.13;;;5.70;;
22628;SDS011;11481;53.694;9.910;2022-08-20T03:37:42;11.52;;;5.13;;
22628;SDS011;11481;53.694;9.910;2022-08-20T03:40:15;7.90;;;3.92;;
22628;SDS011;11481;53.694;9.910;2022-08-20T03:42:47;8.38;;;3.88;;
22628;SDS011;11481;53.694;9.910;2022-08-20T03:45:15;8.30;;;3.25;;
22628;SDS011;11481;53.694;9.910;2022-08-20T03:47:46;10.48;;;4.35;;
22628;SDS011;11481;53.694;9.910;2022-08-20T03:50:13;9.18;;;4.55;;
22628;SDS011;11481;53.694;9.910;2022-08-20T03:52:49;11.52;;;5.25;;
22628;SDS011;11481;53.694;9.910;2022-08-20T03:55:17;10.02;;;4.53;;
22628;SDS011;11481;53.694;9.910;2022-08-20T03:57:49;9.93;;;5.00;;
22628;SDS011;11481;53.694;9.910;2022-08-20T04:00:19;12.25;;;4.45;;
22628;SDS011;11481;53.694;9.910;2022-08-20T04:03:07;13.02;;;5.25;;
22628;SDS011;11481;53.694;9.910;2022-08-20T04:05:35;10.95;;;4.95;;
22628;SDS011;11481;53.694;9.910;2022-08-20T04:08:07;12.20;;;5.30;;
22628;SDS011;11481;53.694;9.910;2022-08-20T04:10:39;11.13;;;5.28;;
22628;SDS011;11481;53.694;9.910;2022-08-20T04:13:06;13.57;;;5.93;;
22628;SDS011;11481;53.694;9.910;2022-08-20T04:15:35;10.52;;;4.75;;
22628;SDS011;11481;53.694;9.910;2022-08-20T04:18:04;9.90;;;5.07;;
22628;SDS011;11481;53.694;9.910;2022-08-20T04:20:33;10.15;;;5.18;;
22628;SDS011;11481;53.694;9.910;2022-08-20T04:23:01;11.00;;;6.00;;
22628;SDS011;11481;53.694;9.910;2022-08-20T04:25:29;10.70;;;4.80;;
22628;SDS011;11481;53.694;9.910;2022-08-20T04:28:01;10.25;;;5.32;;
22628;SDS011;11481;53.694;9.910;2022-08-20T04:30:30;11.98;;;5.68;;
22628;SDS011;11481;53.694;9.910;2022-08-20T04:32:58;13.20;;;5.80;;
22628;SDS011;11481;53.694;9.910;2022-08-20T04:35:25;11.40;;;5.55;;
22628;SDS011;11481;53.694;9.910;2022-08-20T04:38:00;15.63;;;5.47;;
22628;SDS011;11481;53.694;9.910;2022-08-20T04:40:29;13.60;;;6.00;;
22628;SDS011;11481;53.694;9.910;2022-08-20T04:43:15;15.18;;;6.47;;
22628;SDS011;11481;53.694;9.910;2022-08-20T04:45:41;10.88;;;4.70;;
22628;SDS011;11481;53.694;9.910;2022-08-20T04:48:09;19.52;;;6.75;;
22628;SDS011;11481;53.694;9.910;2022-08-20T04:50:41;9.38;;;4.57;;
22628;SDS011;11481;53.694;9.910;2022-08-20T04:53:10;14.98;;;5.63;;
22628;SDS011;11481;53.694;9.910;2022-08-20T04:55:39;11.82;;;5.07;;
22628;SDS011;11481;53.694;9.910;2022-08-20T04:58:09;12.43;;;5.07;;
22628;SDS011;11481;53.694;9.910;2022-08-20T05:00:37;13.30;;;5.78;;
22628;SDS011;11481;53.694;9.910;2022-08-20T05:03:04;10.00;;;4.82;;
22628;SDS011;11481;53.694;9.910;2022-08-20T05:05:32;13.93;;;5.57;;
22628;SDS011;11481;53.694;9.910;2022-08-20T05:08:00;10.85;;;5.30;;
22628;SDS011;11481;53.694;9.910;2022-08-20T05:10:27;14.43;;;6.30;;
22628;SDS011;11481;53.694;9.910;2022-08-20T05:12:55;10.65;;;5.60;;
22628;SDS011;11481;53.694;9.910;2022-08-20T05:15:22;12.52;;;5.97;;
22628;SDS011;11481;53.694;9.910;2022-08-20T05:17:55;13.02;;;6.38;;
22628;SDS011;11481;53.694;9.910;2022-08-20T05:20:25;13.00;;;6.05;;
22628;SDS011;11481;53.694;9.910;2022-08-20T05:22:57;11.52;;;5.57;;
22628;SDS011;11481;53.694;9.910;2022-08-20T05:25:25;12.20;;;5.68;;
22628;SDS011;11481;53.694;9.910;2022-08-20T05:28:00;15.45;;;6.00;;
22628;SDS011;11481;53.694;9.910;2022-08-20T05:30:31;13.77;;;6.43;;
22628;SDS011;11481;53.694;9.910;2022-08-20T05:33:00;14.15;;;6.75;;
22628;SDS011;11481;53.694;9.910;2022-08-20T05:35:28;14.65;;;6.28;;
22628;SDS011;11481;53.694;9.910;2022-08-20T05:37:59;16.00;;;7.65;;
22628;SDS011;11481;53.694;9.910;2022-08-20T05:40:27;13.45;;;6.03;;
22628;SDS011;11481;53.694;9.910;2022-08-20T05:42:53;19.65;;;6.93;;
22628;SDS011;11481;53.694;9.910;2022-08-20T05:45:20;14.57;;;6.95;;
22628;SDS011;11481;53.694;9.910;2022-08-20T05:47:47;14.77;;;6.82;;
22628;SDS011;11481;53.694;9.910;2022-08-20T05:50:21;13.88;;;6.57;;
22628;SDS011;11481;53.694;9.910;2022-08-20T05:52:49;14.73;;;6.32;;
22628;SDS011;11481;53.694;9.910;2022-08-20T05:55:15;14.45;;;7.00;;
22628;SDS011;11481;53.694;9.910;2022-08-20T05:57:42;16.50;;;7.30;;
22628;SDS011;11481;53.694;9.910;2022-08-20T06:00:11;17.25;;;7.13;;
22628;SDS011;11481;53.694;9.910;2022-08-20T06:02:39;14.48;;;6.53;;
22628;SDS011;11481;53.694;9.910;2022-08-20T06:05:25;15.88;;;6.80;;
22628;SDS011;11481;53.694;9.910;2022-08-20T06:07:52;16.50;;;6.85;;
22628;SDS011;11481;53.694;9.910;2022-08-20T06:10:32;18.30;;;8.07;;
22628;SDS011;11481;53.694;9.910;2022-08-20T06:12:59;19.20;;;7.25;;
22628;SDS011;11481;53.694;9.910;2022-08-20T06:15:28;17.83;;;7.65;;
22628;SDS011;11481;53.694;9.910;2022-08-20T06:17:56;17.13;;;7.30;;
22628;SDS011;11481;53.694;9.910;2022-08-20T06:20:24;13.90;;;6.57;;
22628;SDS011;11481;53.694;9.910;2022-08-20T06:22:51;15.18;;;6.22;;
22628;SDS011;11481;53.694;9.910;2022-08-20T06:25:17;17.63;;;7.25;;
22628;SDS011;11481;53.694;9.910;2022-08-20T06:27:44;13.70;;;6.60;;
22628;SDS011;11481;53.694;9.910;2022-08-20T06:30:12;17.83;;;7.20;;
22628;SDS011;11481;53.694;9.910;2022-08-20T06:32:40;19.27;;;7.20;;
22628;SDS011;11481;53.694;9.910;2022-08-20T06:35:07;13.90;;;6.63;;
22628;SDS011;11481;53.694;9.910;2022-08-20T06:37:36;16.55;;;7.38;;
22628;SDS011;11481;53.694;9.910;2022-08-20T06:40:10;18.00;;;8.00;;
22628;SDS011;11481;53.694;9.910;2022-08-20T06:42:39;17.17;;;6.20;;
22628;SDS011;11481;53.694;9.910;2022-08-20T06:45:14;16.05;;;7.25;;
22628;SDS011;11481;53.694;9.910;2022-08-20T06:47:45;17.20;;;7.00;;
22628;SDS011;11481;53.694;9.910;2022-08-20T06:50:14;20.27;;;7.30;;
22628;SDS011;11481;53.694;9.910;2022-08-20T06:52:43;13.25;;;6.32;;
22628;SDS011;11481;53.694;9.910;2022-08-20T06:55:28;14.15;;;6.38;;
22628;SDS011;11481;53.694;9.910;2022-08-20T06:57:58;13.45;;;6.43;;
22628;SDS011;11481;53.694;9.910;2022-08-20T07:00:30;13.05;;;6.57;;
22628;SDS011;11481;53.694;9.910;2022-08-20T07:02:58;11.98;;;6.05;;
22628;SDS011;11481;53.694;9.910;2022-08-20T07:05:26;11.73;;;5.75;;
22628;SDS011;11481;53.694;9.910;2022-08-20T07:07:54;10.27;;;5.32;;
22628;SDS011;11481;53.694;9.910;2022-08-20T07:10:24;11.68;;;5.18;;
22628;SDS011;11481;53.694;9.910;2022-08-20T07:12:55;12.85;;;5.75;;
22628;SDS011;11481;53.694;9.910;2022-08-20T07:15:24;10.70;;;5.13;;
22628;SDS011;11481;53.694;9.910;2022-08-20T07:17:53;9.32;;;4.47;;
22628;SDS011;11481;53.694;9.910;2022-08-20T07:20:27;8.55;;;4.22;;
22628;SDS011;11481;53.694;9.910;2022-08-20T07:22:54;6.63;;;3.53;;
22628;SDS011;11481;53.694;9.910;2022-08-20T07:25:21;7.53;;;3.88;;
22628;SDS011;11481;53.694;9.910;2022-08-20T07:27:49;8.57;;;3.55;;
22628;SDS011;11481;53.694;9.910;2022-08-20T07:30:24;6.90;;;3.72;;
22628;SDS011;11481;53.694;9.910;2022-08-20T07:33:23;6.40;;;3.58;;
22628;SDS011;11481;53.694;9.910;2022-08-20T07:35:53;6.82;;;2.95;;
22628;SDS011;11481;53.694;9.910;2022-08-20T07:38:22;5.57;;;3.28;;
22628;SDS011;11481;53.694;9.910;2022-08-20T07:40:51;5.50;;;2.80;;
22628;SDS011;11481;53.694;9.910;2022-08-20T07:43:19;6.72;;;2.95;;
22628;SDS011;11481;53.694;9.910;2022-08-20T07:45:49;5.40;;;2.45;;
22628;SDS011;11481;53.694;9.910;2022-08-20T07:48:23;3.88;;;2.55;;
22628;SDS011;11481;53.694;9.910;2022-08-20T07:50:57;4.70;;;2.25;;
22628;SDS011;11481;53.694;9.910;2022-08-20T07:53:26;4.25;;;2.17;;
22628;SDS011;11481;53.694;9.910;2022-08-20T07:55:58;3.85;;;2.10;;
22628;SDS011;11481;53.694;9.910;2022-08-20T07:58:26;5.85;;;2.70;;
22628;SDS011;11481;53.694;9.910;2022-08-20T08:00:58;3.22;;;2.30;;
22628;SDS011;11481;53.694;9.910;2022-08-20T08:03:26;4.28;;;2.15;;
22628;SDS011;11481;53.694;9.910;2022-08-20T08:06:14;7.32;;;2.28;;
22628;SDS011;11481;53.694;9.910;2022-08-20T08:08:55;3.97;;;2.28;;
22628;SDS011;11481;53.694;9.910;2022-08-20T08:11:27;6.22;;;3.28;;
22628;SDS011;11481;53.694;9.910;2022-08-20T08:13:54;4.40;;;2.17;;
22628;SDS011;11481;53.694;9.910;2022-08-20T08:16:21;7.03;;;3.05;;
22628;SDS011;11481;53.694;9.910;2022-08-20T08:18:49;3.45;;;1.80;;
22628;SDS011;11481;53.694;9.910;2022-08-20T08:21:21;2.83;;;1.40;;
22628;SDS011;11481;53.694;9.910;2022-08-20T08:23:48;2.60;;;1.30;;
22628;SDS011;11481;53.694;9.910;2022-08-20T08:26:15;7.30;;;1.80;;
22628;SDS011;11481;53.694;9.910;2022-08-20T08:28:44;4.10;;;1.77;;
22628;SDS011;11481;53.694;9.910;2022-08-20T08:31:11;3.00;;;1.60;;
22628;SDS011;11481;53.694;9.910;2022-08-20T08:33:38;4.93;;;1.75;;
22628;SDS011;11481;53.694;9.910;2022-08-20T08:36:15;5.95;;;1.80;;
22628;SDS011;11481;53.694;9.910;2022-08-20T08:38:42;4.13;;;2.17;;
22628;SDS011;11481;53.694;9.910;2022-08-20T08:44:06;5.22;;;2.60;;
22628;SDS011;11481;53.694;9.910;2022-08-20T08:46:39;3.13;;;1.77;;
22628;SDS011;11481;53.694;9.910;2022-08-20T08:49:09;4.82;;;2.00;;
22628;SDS011;11481;53.694;9.910;2022-08-20T08:51:44;7.28;;;2.10;;
22628;SDS011;11481;53.694;9.910;2022-08-20T08:54:19;3.50;;;1.35;;
22628;SDS011;11481;53.694;9.910;2022-08-20T08:56:47;2.17;;;1.58;;
22628;SDS011;11481;53.694;9.910;2022-08-20T08:59:15;3.55;;;1.92;;
22628;SDS011;11481;53.694;9.910;2022-08-20T09:01:50;3.58;;;1.85;;
22628;SDS011;11481;53.694;9.910;2022-08-20T09:04:33;7.30;;;1.77;;
22628;SDS011;11481;53.694;9.910;2022-08-20T09:07:03;9.63;;;2.25;;
22628;SDS011;11481;53.694;9.910;2022-08-20T09:09:35;5.75;;;1.65;;
22628;SDS011;11481;53.694;9.910;2022-08-20T09:12:05;3.35;;;1.80;;
22628;SDS011;11481;53.694;9.910;2022-08-20T09:14:34;3.47;;;1.70;;
22628;SDS011;11481;53.694;9.910;2022-08-20T09:17:01;5.25;;;1.50;;
22628;SDS011;11481;53.694;9.910;2022-08-20T09:19:28;3.78;;;1.80;;
22628;SDS011;11481;53.694;9.910;2022-08-20T09:21:55;4.38;;;1.50;;
22628;SDS011;11481;53.694;9.910;2022-08-20T09:24:22;5.25;;;1.60;;
22628;SDS011;11481;53.694;9.910;2022-08-20T09:26:49;5.45;;;1.85;;
22628;SDS011;11481;53.694;9.910;2022-08-20T09:29:16;4.13;;;1.60;;
22628;SDS011;11481;53.694;9.910;2022-08-20T09:31:43;4.40;;;1.52;;
22628;SDS011;11481;53.694;9.910;2022-08-20T09:34:11;2.80;;;1.45;;
22628;SDS011;11481;53.694;9.910;2022-08-20T09:36:38;5.15;;;2.20;;
22628;SDS011;11481;53.694;9.910;2022-08-20T09:39:04;8.20;;;1.60;;
22628;SDS011;11481;53.694;9.910;2022-08-20T09:41:31;3.22;;;1.73;;
22628;SDS011;11481;53.694;9.910;2022-08-20T09:43:59;2.05;;;1.33;;
22628;SDS011;11481;53.694;9.910;2022-08-20T09:46:26;4.80;;;1.83;;
22628;SDS011;11481;53.694;9.910;2022-08-20T09:48:53;7.68;;;1.70;;
22628;SDS011;11481;53.694;9.910;2022-08-20T09:51:22;3.95;;;1.73;;
22628;SDS011;11481;53.694;9.910;2022-08-20T09:53:48;2.38;;;1.40;;
22628;SDS011;11481;53.694;9.910;2022-08-20T09:56:15;5.78;;;2.05;;
22628;SDS011;11481;53.694;9.910;2022-08-20T09:58:47;4.80;;;1.60;;
22628;SDS011;11481;53.694;9.910;2022-08-20T10:01:16;6.95;;;1.60;;
22628;SDS011;11481;53.694;9.910;2022-08-20T10:03:44;4.63;;;1.58;;
22628;SDS011;11481;53.694;9.910;2022-08-20T10:06:16;2.78;;;1.60;;
22628;SDS011;11481;53.694;9.910;2022-08-20T10:08:45;4.75;;;1.80;;
22628;SDS011;11481;53.694;9.910;2022-08-20T10:11:12;12.93;;;2.05;;
22628;SDS011;11481;53.694;9.910;2022-08-20T10:13:39;7.43;;;2.55;;
22628;SDS011;11481;53.694;9.910;2022-08-20T10:16:06;8.77;;;2.10;;
22628;SDS011;11481;53.694;9.910;2022-08-20T10:18:33;6.10;;;2.58;;
22628;SDS011;11481;53.694;9.910;2022-08-20T10:21:01;7.47;;;2.03;;
22628;SDS011;11481;53.694;9.910;2022-08-20T10:23:29;5.57;;;2.15;;
22628;SDS011;11481;53.694;9.910;2022-08-20T10:25:55;7.95;;;1.90;;
22628;SDS011;11481;53.694;9.910;2022-08-20T10:28:22;6.53;;;2.03;;
22628;SDS011;11481;53.694;9.910;2022-08-20T10:30:48;5.65;;;1.95;;
22628;SDS011;11481;53.694;9.910;2022-08-20T10:33:15;2.67;;;1.23;;
22628;SDS011;11481;53.694;9.910;2022-08-20T10:35:42;2.53;;;1.40;;
22628;SDS011;11481;53.694;9.910;2022-08-20T10:38:08;4.20;;;1.85;;
22628;SDS011;11481;53.694;9.910;2022-08-20T10:40:35;6.50;;;1.90;;
22628;SDS011;11481;53.694;9.910;2022-08-20T10:43:02;5.30;;;1.27;;
22628;SDS011;11481;53.694;9.910;2022-08-20T10:45:28;3.28;;;1.20;;
22628;SDS011;11481;53.694;9.910;2022-08-20T10:47:57;3.40;;;1.38;;
22628;SDS011;11481;53.694;9.910;2022-08-20T10:50:25;4.38;;;1.20;;
22628;SDS011;11481;53.694;9.910;2022-08-20T10:52:56;7.05;;;0.85;;
22628;SDS011;11481;53.694;9.910;2022-08-20T10:55:23;4.20;;;1.10;;
22628;SDS011;11481;53.694;9.910;2022-08-20T10:57:49;3.30;;;0.88;;
22628;SDS011;11481;53.694;9.910;2022-08-20T11:00:17;1.98;;;0.70;;
22628;SDS011;11481;53.694;9.910;2022-08-20T11:02:44;4.13;;;1.00;;
22628;SDS011;11481;53.694;9.910;2022-08-20T11:05:11;5.75;;;1.42;;
22628;SDS011;11481;53.694;9.910;2022-08-20T11:07:39;3.10;;;0.90;;
22628;SDS011;11481;53.694;9.910;2022-08-20T11:10:25;2.17;;;0.70;;
22628;SDS011;11481;53.694;9.910;2022-08-20T11:12:54;1.52;;;0.90;;
22628;SDS011;11481;53.694;9.910;2022-08-20T11:15:20;2.72;;;0.80;;
22628;SDS011;11481;53.694;9.910;2022-08-20T11:17:47;1.90;;;1.00;;
22628;SDS011;11481;53.694;9.910;2022-08-20T11:20:15;2.50;;;0.60;;
22628;SDS011;11481;53.694;9.910;2022-08-20T11:22:44;1.55;;;0.80;;
22628;SDS011;11481;53.694;9.910;2022-08-20T11:25:11;6.60;;;0.90;;
22628;SDS011;11481;53.694;9.910;2022-08-20T11:27:40;2.92;;;1.02;;
22628;SDS011;11481;53.694;9.910;2022-08-20T11:30:10;3.75;;;1.20;;
22628;SDS011;11481;53.694;9.910;2022-08-20T11:32:39;1.65;;;0.93;;
22628;SDS011;11481;53.694;9.910;2022-08-20T11:35:07;4.07;;;0.90;;
22628;SDS011;11481;53.694;9.910;2022-08-20T11:37:54;1.85;;;0.50;;
22628;SDS011;11481;53.694;9.910;2022-08-20T11:40:22;2.85;;;1.20;;
22628;SDS011;11481;53.694;9.910;2022-08-20T11:42:50;4.00;;;1.08;;
22628;SDS011;11481;53.694;9.910;2022-08-20T11:45:36;5.50;;;1.05;;
22628;SDS011;11481;53.694;9.910;2022-08-20T11:48:03;1.77;;;0.55;;
22628;SDS011;11481;53.694;9.910;2022-08-20T11:50:30;2.83;;;0.50;;
22628;SDS011;11481;53.694;9.910;2022-08-20T11:52:57;2.65;;;0.68;;
22628;SDS011;11481;53.694;9.910;2022-08-20T11:55:26;3.28;;;1.27;;
22628;SDS011;11481;53.694;9.910;2022-08-20T11:57:55;0.93;;;0.43;;
22628;SDS011;11481;53.694;9.910;2022-08-20T12:00:25;1.17;;;0.65;;
22628;SDS011;11481;53.694;9.910;2022-08-20T12:03:02;0.80;;;0.40;;
22628;SDS011;11481;53.694;9.910;2022-08-20T12:05:35;2.08;;;0.50;;
22628;SDS011;11481;53.694;9.910;2022-08-20T12:08:03;3.67;;;1.10;;
22628;SDS011;11481;53.694;9.910;2022-08-20T12:10:30;2.42;;;0.40;;
22628;SDS011;11481;53.694;9.910;2022-08-20T12:12:57;4.57;;;0.75;;
22628;SDS011;11481;53.694;9.910;2022-08-20T12:15:24;1.80;;;0.65;;
22628;SDS011;11481;53.694;9.910;2022-08-20T12:17:52;0.98;;;0.40;;
22628;SDS011;11481;53.694;9.910;2022-08-20T12:20:19;2.50;;;0.50;;
22628;SDS011;11481;53.694;9.910;2022-08-20T12:22:47;1.13;;;0.50;;
22628;SDS011;11481;53.694;9.910;2022-08-20T12:25:14;0.95;;;0.40;;
22628;SDS011;11481;53.694;9.910;2022-08-20T12:27:40;2.33;;;0.65;;
22628;SDS011;11481;53.694;9.910;2022-08-20T12:30:11;3.97;;;0.52;;
22628;SDS011;11481;53.694;9.910;2022-08-20T12:32:40;2.03;;;0.50;;
22628;SDS011;11481;53.694;9.910;2022-08-20T12:35:08;1.67;;;0.60;;
22628;SDS011;11481;53.694;9.910;2022-08-20T12:37:36;2.33;;;0.70;;
22628;SDS011;11481;53.694;9.910;2022-08-20T12:40:04;2.72;;;1.08;;
22628;SDS011;11481;53.694;9.910;2022-08-20T12:42:33;3.58;;;0.50;;
22628;SDS011;11481;53.694;9.910;2022-08-20T12:45:00;1.75;;;0.70;;
22628;SDS011;11481;53.694;9.910;2022-08-20T12:47:28;3.03;;;0.40;;
22628;SDS011;11481;53.694;9.910;2022-08-20T12:52:32;2.75;;;0.52;;
22628;SDS011;11481;53.694;9.910;2022-08-20T12:55:00;2.10;;;0.60;;
22628;SDS011;11481;53.694;9.910;2022-08-20T13:00:10;4.25;;;0.88;;
22628;SDS011;11481;53.694;9.910;2022-08-20T13:02:39;2.92;;;0.73;;
22628;SDS011;11481;53.694;9.910;2022-08-20T13:05:09;5.95;;;0.80;;
22628;SDS011;11481;53.694;9.910;2022-08-20T13:07:38;1.58;;;0.60;;
22628;SDS011;11481;53.694;9.910;2022-08-20T13:10:05;1.55;;;0.45;;
22628;SDS011;11481;53.694;9.910;2022-08-20T13:12:34;2.13;;;0.57;;
22628;SDS011;11481;53.694;9.910;2022-08-20T13:15:02;2.05;;;0.55;;
22628;SDS011;11481;53.694;9.910;2022-08-20T13:17:29;1.38;;;0.63;;
22628;SDS011;11481;53.694;9.910;2022-08-20T13:20:06;0.82;;;0.40;;
22628;SDS011;11481;53.694;9.910;2022-08-20T13:22:35;2.92;;;0.43;;
22628;SDS011;11481;53.694;9.910;2022-08-20T13:25:04;3.38;;;0.63;;
22628;SDS011;11481;53.694;9.910;2022-08-20T13:27:31;1.20;;;0.38;;
22628;SDS011;11481;53.694;9.910;2022-08-20T13:29:57;4.80;;;0.63;;
22628;SDS011;11481;53.694;9.910;2022-08-20T13:32:24;1.92;;;0.60;;
22628;SDS011;11481;53.694;9.910;2022-08-20T13:34:51;3.88;;;0.77;;
22628;SDS011;11481;53.694;9.910;2022-08-20T13:37:23;2.22;;;0.60;;
22628;SDS011;11481;53.694;9.910;2022-08-20T13:39:53;0.77;;;0.43;;
22628;SDS011;11481;53.694;9.910;2022-08-20T13:42:21;2.20;;;0.65;;
22628;SDS011;11481;53.694;9.910;2022-08-20T13:44:47;4.50;;;0.75;;
22628;SDS011;11481;53.694;9.910;2022-08-20T13:47:19;4.95;;;0.98;;
22628;SDS011;11481;53.694;9.910;2022-08-20T13:49:58;2.22;;;0.93;;
22628;SDS011;11481;53.694;9.910;2022-08-20T13:52:26;1.25;;;0.50;;
22628;SDS011;11481;53.694;9.910;2022-08-20T13:54:53;3.30;;;0.70;;
22628;SDS011;11481;53.694;9.910;2022-08-20T13:57:21;1.00;;;0.40;;
22628;SDS011;11481;53.694;9.910;2022-08-20T13:59:50;0.85;;;0.25;;
22628;SDS011;11481;53.694;9.910;2022-08-20T14:02:19;3.25;;;0.43;;
22628;SDS011;11481;53.694;9.910;2022-08-20T14:04:46;7.15;;;0.70;;
22628;SDS011;11481;53.694;9.910;2022-08-20T14:07:18;1.80;;;0.63;;
22628;SDS011;11481;53.694;9.910;2022-08-20T14:09:48;1.23;;;0.40;;
22628;SDS011;11481;53.694;9.910;2022-08-20T14:12:20;0.95;;;0.40;;
22628;SDS011;11481;53.694;9.910;2022-08-20T14:14:50;2.20;;;0.60;;
22628;SDS011;11481;53.694;9.910;2022-08-20T14:19:59;1.23;;;0.50;;
22628;SDS011;11481;53.694;9.910;2022-08-20T14:22:27;2.00;;;0.85;;
22628;SDS011;11481;53.694;9.910;2022-08-20T14:24:54;1.25;;;0.52;;
22628;SDS011;11481;53.694;9.910;2022-08-20T14:27:21;1.13;;;0.50;;
22628;SDS011;11481;53.694;9.910;2022-08-20T14:29:55;0.88;;;0.20;;
22628;SDS011;11481;53.694;9.910;2022-08-20T14:32:22;2.45;;;0.30;;
22628;SDS011;11481;53.694;9.910;2022-08-20T14:34:49;3.75;;;0.73;;
22628;SDS011;11481;53.694;9.910;2022-08-20T14:39:51;0.28;;;0.20;;
22628;SDS011;11481;53.694;9.910;2022-08-20T14:42:19;1.70;;;0.80;;
22628;SDS011;11481;53.694;9.910;2022-08-20T14:44:49;1.58;;;0.60;;
22628;SDS011;11481;53.694;9.910;2022-08-20T14:49:46;4.45;;;0.70;;
22628;SDS011;11481;53.694;9.910;2022-08-20T14:52:14;4.22;;;0.93;;
22628;SDS011;11481;53.694;9.910;2022-08-20T14:54:42;1.15;;;0.40;;
22628;SDS011;11481;53.694;9.910;2022-08-20T14:57:12;3.00;;;0.50;;
22628;SDS011;11481;53.694;9.910;2022-08-20T14:59:39;3.42;;;0.90;;
22628;SDS011;11481;53.694;9.910;2022-08-20T15:02:08;4.43;;;0.93;;
22628;SDS011;11481;53.694;9.910;2022-08-20T15:04:38;3.80;;;0.60;;
22628;SDS011;11481;53.694;9.910;2022-08-20T15:07:06;1.67;;;0.70;;
22628;SDS011;11481;53.694;9.910;2022-08-20T15:09:41;4.50;;;0.77;;
22628;SDS011;11481;53.694;9.910;2022-08-20T15:12:08;1.17;;;0.40;;
22628;SDS011;11481;53.694;9.910;2022-08-20T15:14:35;2.03;;;0.65;;
22628;SDS011;11481;53.694;9.910;2022-08-20T15:17:04;2.35;;;0.63;;
22628;SDS011;11481;53.694;9.910;2022-08-20T15:19:31;1.90;;;0.70;;
22628;SDS011;11481;53.694;9.910;2022-08-20T15:21:58;4.03;;;0.82;;
22628;SDS011;11481;53.694;9.910;2022-08-20T15:24:25;6.40;;;0.85;;